sensor_id;sensor_type;location;lat;lon;timestamp;P1;durP1;ratioP1;P2;durP2;ratioP2
26718;SDS011;14326;50.794;6.060;2024-03-06T00:01:05;10.82;;;3.92;;
26718;SDS011;14326;50.794;6.060;2024-03-06T00:03:32;13.38;;;4.28;;
26718;SDS011;14326;50.794;6.060;2024-03-06T00:06:00;12.68;;;4.32;;
26718;SDS011;14326;50.794;6.060;2024-03-06T00:08:27;11.30;;;3.65;;
26718;SDS011;14326;50.794;6.060;2024-03-06T00:10:54;14.20;;;4.53;;
26718;SDS011;14326;50.794;6.060;2024-03-06T00:13:20;12.30;;;4.10;;
26718;SDS011;14326;50.794;6.060;2024-03-06T00:15:47;13.85;;;3.97;;
26718;SDS011;14326;50.794;6.060;2024-03-06T00:18:14;10.70;;;3.50;;
26718;SDS011;14326;50.794;6.060;2024-03-06T00:20:40;10.80;;;3.17;;
26718;SDS011;14326;50.794;6.060;2024-03-06T00:23:09;9.38;;;3.30;;
26718;SDS011;14326;50.794;6.060;2024-03-06T00:25:35;8.95;;;2.78;;
26718;SDS011;14326;50.794;6.060;2024-03-06T00:28:02;11.68;;;3.38;;
26718;SDS011;14326;50.794;6.060;2024-03-06T00:30:29;10.73;;;2.85;;
26718;SDS011;14326;50.794;6.060;2024-03-06T00:32:56;9.65;;;3.55;;
26718;SDS011;14326;50.794;6.060;2024-03-06T00:35:23;13.70;;;3.40;;
26718;SDS011;14326;50.794;6.060;2024-03-06T00:37:51;10.55;;;2.95;;
26718;SDS011;14326;50.794;6.060;2024-03-06T00:40:19;9.82;;;3.08;;
26718;SDS011;14326;50.794;6.060;2024-03-06T00:42:46;8.85;;;2.72;;
26718;SDS011;14326;50.794;6.060;2024-03-06T00:45:12;10.27;;;2.83;;
26718;SDS011;14326;50.794;6.060;2024-03-06T00:47:39;11.15;;;2.80;;
26718;SDS011;14326;50.794;6.060;2024-03-06T00:50:06;12.32;;;2.95;;
26718;SDS011;14326;50.794;6.060;2024-03-06T00:52:33;9.30;;;2.70;;
26718;SDS011;14326;50.794;6.060;2024-03-06T00:54:59;5.80;;;2.22;;
26718;SDS011;14326;50.794;6.060;2024-03-06T00:57:27;7.45;;;2.58;;
26718;SDS011;14326;50.794;6.060;2024-03-06T00:59:54;6.50;;;2.65;;
26718;SDS011;14326;50.794;6.060;2024-03-06T01:02:21;10.82;;;3.65;;
26718;SDS011;14326;50.794;6.060;2024-03-06T01:04:47;9.07;;;2.70;;
26718;SDS011;14326;50.794;6.060;2024-03-06T01:07:14;8.25;;;2.83;;
26718;SDS011;14326;50.794;6.060;2024-03-06T01:09:40;9.35;;;2.65;;
26718;SDS011;14326;50.794;6.060;2024-03-06T01:12:07;8.32;;;2.67;;
26718;SDS011;14326;50.794;6.060;2024-03-06T01:14:35;9.73;;;2.88;;
26718;SDS011;14326;50.794;6.060;2024-03-06T01:17:01;9.23;;;2.70;;
26718;SDS011;14326;50.794;6.060;2024-03-06T01:19:28;8.40;;;2.75;;
26718;SDS011;14326;50.794;6.060;2024-03-06T01:21:55;10.57;;;3.28;;
26718;SDS011;14326;50.794;6.060;2024-03-06T01:24:21;9.27;;;2.58;;
26718;SDS011;14326;50.794;6.060;2024-03-06T01:26:48;7.63;;;2.55;;
26718;SDS011;14326;50.794;6.060;2024-03-06T01:29:14;5.18;;;2.28;;
26718;SDS011;14326;50.794;6.060;2024-03-06T01:31:43;7.13;;;2.30;;
26718;SDS011;14326;50.794;6.060;2024-03-06T01:34:11;7.05;;;2.60;;
26718;SDS011;14326;50.794;6.060;2024-03-06T01:36:38;8.68;;;2.55;;
26718;SDS011;14326;50.794;6.060;2024-03-06T01:39:04;6.25;;;2.40;;
26718;SDS011;14326;50.794;6.060;2024-03-06T01:41:31;7.05;;;2.72;;
26718;SDS011;14326;50.794;6.060;2024-03-06T01:43:58;7.60;;;2.40;;
26718;SDS011;14326;50.794;6.060;2024-03-06T01:46:25;11.52;;;2.72;;
26718;SDS011;14326;50.794;6.060;2024-03-06T01:48:53;10.65;;;2.70;;
26718;SDS011;14326;50.794;6.060;2024-03-06T01:51:20;6.88;;;2.67;;
26718;SDS011;14326;50.794;6.060;2024-03-06T01:53:46;7.00;;;2.38;;
26718;SDS011;14326;50.794;6.060;2024-03-06T01:56:14;10.15;;;2.83;;
26718;SDS011;14326;50.794;6.060;2024-03-06T01:58:42;9.43;;;2.80;;
26718;SDS011;14326;50.794;6.060;2024-03-06T02:01:11;8.00;;;3.00;;
26718;SDS011;14326;50.794;6.060;2024-03-06T02:03:38;10.98;;;2.70;;
26718;SDS011;14326;50.794;6.060;2024-03-06T02:06:07;9.13;;;2.70;;
26718;SDS011;14326;50.794;6.060;2024-03-06T02:08:36;10.65;;;2.88;;
26718;SDS011;14326;50.794;6.060;2024-03-06T02:11:03;8.43;;;2.67;;
26718;SDS011;14326;50.794;6.060;2024-03-06T02:13:29;9.65;;;2.55;;
26718;SDS011;14326;50.794;6.060;2024-03-06T02:15:56;6.90;;;2.60;;
26718;SDS011;14326;50.794;6.060;2024-03-06T02:18:23;6.97;;;2.75;;
26718;SDS011;14326;50.794;6.060;2024-03-06T02:20:51;9.32;;;2.60;;
26718;SDS011;14326;50.794;6.060;2024-03-06T02:23:18;9.93;;;2.58;;
26718;SDS011;14326;50.794;6.060;2024-03-06T02:25:46;6.72;;;2.40;;
26718;SDS011;14326;50.794;6.060;2024-03-06T02:28:13;7.28;;;2.33;;
26718;SDS011;14326;50.794;6.060;2024-03-06T02:30:40;6.72;;;2.65;;
26718;SDS011;14326;50.794;6.060;2024-03-06T02:33:06;8.13;;;2.85;;
26718;SDS011;14326;50.794;6.060;2024-03-06T02:35:34;9.43;;;2.47;;
26718;SDS011;14326;50.794;6.060;2024-03-06T02:38:02;11.00;;;3.00;;
26718;SDS011;14326;50.794;6.060;2024-03-06T02:40:30;7.60;;;2.43;;
26718;SDS011;14326;50.794;6.060;2024-03-06T02:42:57;6.97;;;2.67;;
26718;SDS011;14326;50.794;6.060;2024-03-06T02:45:23;7.63;;;3.03;;
26718;SDS011;14326;50.794;6.060;2024-03-06T02:47:50;9.20;;;2.80;;
26718;SDS011;14326;50.794;6.060;2024-03-06T02:50:17;7.25;;;2.70;;
26718;SDS011;14326;50.794;6.060;2024-03-06T02:52:43;6.63;;;2.10;;
26718;SDS011;14326;50.794;6.060;2024-03-06T02:55:11;7.85;;;2.40;;
26718;SDS011;14326;50.794;6.060;2024-03-06T02:57:38;5.85;;;2.22;;
26718;SDS011;14326;50.794;6.060;2024-03-06T03:00:05;9.98;;;2.88;;
26718;SDS011;14326;50.794;6.060;2024-03-06T03:02:38;8.65;;;2.38;;
26718;SDS011;14326;50.794;6.060;2024-03-06T03:05:05;10.07;;;2.47;;
26718;SDS011;14326;50.794;6.060;2024-03-06T03:07:32;9.23;;;2.60;;
26718;SDS011;14326;50.794;6.060;2024-03-06T03:09:58;7.65;;;2.35;;
26718;SDS011;14326;50.794;6.060;2024-03-06T03:12:26;7.80;;;2.08;;
26718;SDS011;14326;50.794;6.060;2024-03-06T03:14:53;7.15;;;2.63;;
26718;SDS011;14326;50.794;6.060;2024-03-06T03:17:20;7.90;;;2.50;;
26718;SDS011;14326;50.794;6.060;2024-03-06T03:19:46;7.70;;;2.63;;
26718;SDS011;14326;50.794;6.060;2024-03-06T03:22:13;7.13;;;2.50;;
26718;SDS011;14326;50.794;6.060;2024-03-06T03:24:41;6.68;;;2.25;;
26718;SDS011;14326;50.794;6.060;2024-03-06T03:27:07;5.00;;;2.10;;
26718;SDS011;14326;50.794;6.060;2024-03-06T03:29:35;5.95;;;2.20;;
26718;SDS011;14326;50.794;6.060;2024-03-06T03:32:02;9.82;;;2.70;;
26718;SDS011;14326;50.794;6.060;2024-03-06T03:34:29;7.07;;;2.65;;
26718;SDS011;14326;50.794;6.060;2024-03-06T03:36:56;9.98;;;2.83;;
26718;SDS011;14326;50.794;6.060;2024-03-06T03:39:22;6.90;;;2.30;;
26718;SDS011;14326;50.794;6.060;2024-03-06T03:41:49;4.30;;;2.00;;
26718;SDS011;14326;50.794;6.060;2024-03-06T03:44:17;8.30;;;2.50;;
26718;SDS011;14326;50.794;6.060;2024-03-06T03:46:46;6.43;;;2.30;;
26718;SDS011;14326;50.794;6.060;2024-03-06T03:49:13;8.57;;;2.50;;
26718;SDS011;14326;50.794;6.060;2024-03-06T03:51:40;6.75;;;2.17;;
26718;SDS011;14326;50.794;6.060;2024-03-06T03:54:07;7.20;;;2.42;;
26718;SDS011;14326;50.794;6.060;2024-03-06T03:56:34;7.47;;;2.70;;
26718;SDS011;14326;50.794;6.060;2024-03-06T03:59:01;6.35;;;2.10;;
26718;SDS011;14326;50.794;6.060;2024-03-06T04:01:28;7.63;;;2.58;;
26718;SDS011;14326;50.794;6.060;2024-03-06T04:03:56;5.57;;;2.33;;
26718;SDS011;14326;50.794;6.060;2024-03-06T04:06:22;7.55;;;2.67;;
26718;SDS011;14326;50.794;6.060;2024-03-06T04:08:49;6.63;;;2.25;;
26718;SDS011;14326;50.794;6.060;2024-03-06T04:11:15;10.20;;;2.50;;
26718;SDS011;14326;50.794;6.060;2024-03-06T04:13:42;7.53;;;2.50;;
26718;SDS011;14326;50.794;6.060;2024-03-06T04:16:08;8.90;;;2.45;;
26718;SDS011;14326;50.794;6.060;2024-03-06T04:18:35;8.55;;;2.63;;
26718;SDS011;14326;50.794;6.060;2024-03-06T04:21:04;10.65;;;2.40;;
26718;SDS011;14326;50.794;6.060;2024-03-06T04:23:31;4.77;;;1.83;;
26718;SDS011;14326;50.794;6.060;2024-03-06T04:25:58;8.48;;;2.47;;
26718;SDS011;14326;50.794;6.060;2024-03-06T04:28:25;5.45;;;2.17;;
26718;SDS011;14326;50.794;6.060;2024-03-06T04:30:52;7.03;;;2.50;;
26718;SDS011;14326;50.794;6.060;2024-03-06T04:33:18;11.18;;;2.97;;
26718;SDS011;14326;50.794;6.060;2024-03-06T04:35:45;12.07;;;2.78;;
26718;SDS011;14326;50.794;6.060;2024-03-06T04:38:13;7.90;;;3.00;;
26718;SDS011;14326;50.794;6.060;2024-03-06T04:40:40;9.15;;;2.72;;
26718;SDS011;14326;50.794;6.060;2024-03-06T04:43:07;11.15;;;2.65;;
26718;SDS011;14326;50.794;6.060;2024-03-06T04:45:33;10.50;;;2.92;;
26718;SDS011;14326;50.794;6.060;2024-03-06T04:48:00;9.07;;;2.90;;
26718;SDS011;14326;50.794;6.060;2024-03-06T04:50:26;6.55;;;2.58;;
26718;SDS011;14326;50.794;6.060;2024-03-06T04:52:53;8.18;;;2.90;;
26718;SDS011;14326;50.794;6.060;2024-03-06T04:55:22;9.02;;;2.88;;
26718;SDS011;14326;50.794;6.060;2024-03-06T04:57:50;7.90;;;2.58;;
26718;SDS011;14326;50.794;6.060;2024-03-06T05:00:18;9.25;;;3.13;;
26718;SDS011;14326;50.794;6.060;2024-03-06T05:02:44;8.43;;;2.55;;
26718;SDS011;14326;50.794;6.060;2024-03-06T05:05:11;5.35;;;2.47;;
26718;SDS011;14326;50.794;6.060;2024-03-06T05:07:37;8.50;;;2.97;;
26718;SDS011;14326;50.794;6.060;2024-03-06T05:10:04;9.38;;;2.92;;
26718;SDS011;14326;50.794;6.060;2024-03-06T05:12:34;10.88;;;3.47;;
26718;SDS011;14326;50.794;6.060;2024-03-06T05:15:01;8.75;;;2.88;;
26718;SDS011;14326;50.794;6.060;2024-03-06T05:17:28;8.30;;;3.05;;
26718;SDS011;14326;50.794;6.060;2024-03-06T05:19:54;7.25;;;2.88;;
26718;SDS011;14326;50.794;6.060;2024-03-06T05:22:21;6.85;;;2.85;;
26718;SDS011;14326;50.794;6.060;2024-03-06T05:24:48;9.27;;;2.53;;
26718;SDS011;14326;50.794;6.060;2024-03-06T05:27:14;10.65;;;3.15;;
26718;SDS011;14326;50.794;6.060;2024-03-06T05:29:43;7.65;;;2.90;;
26718;SDS011;14326;50.794;6.060;2024-03-06T05:32:10;7.97;;;2.85;;
26718;SDS011;14326;50.794;6.060;2024-03-06T05:34:36;12.50;;;3.75;;
26718;SDS011;14326;50.794;6.060;2024-03-06T05:37:03;8.93;;;3.00;;
26718;SDS011;14326;50.794;6.060;2024-03-06T05:39:30;10.40;;;2.85;;
26718;SDS011;14326;50.794;6.060;2024-03-06T05:41:59;8.70;;;2.88;;
26718;SDS011;14326;50.794;6.060;2024-03-06T05:44:28;10.95;;;3.25;;
26718;SDS011;14326;50.794;6.060;2024-03-06T05:46:56;8.60;;;2.67;;
26718;SDS011;14326;50.794;6.060;2024-03-06T05:49:23;7.65;;;2.78;;
26718;SDS011;14326;50.794;6.060;2024-03-06T05:51:50;10.48;;;3.15;;
26718;SDS011;14326;50.794;6.060;2024-03-06T05:54:17;9.52;;;3.20;;
26718;SDS011;14326;50.794;6.060;2024-03-06T05:56:44;10.25;;;3.00;;
26718;SDS011;14326;50.794;6.060;2024-03-06T05:59:11;11.85;;;3.10;;
26718;SDS011;14326;50.794;6.060;2024-03-06T06:01:38;12.93;;;3.25;;
26718;SDS011;14326;50.794;6.060;2024-03-06T06:04:06;7.72;;;2.90;;
26718;SDS011;14326;50.794;6.060;2024-03-06T06:06:34;10.88;;;3.50;;
26718;SDS011;14326;50.794;6.060;2024-03-06T06:09:00;10.68;;;3.28;;
26718;SDS011;14326;50.794;6.060;2024-03-06T06:11:28;7.63;;;2.75;;
26718;SDS011;14326;50.794;6.060;2024-03-06T06:13:55;8.05;;;3.10;;
26718;SDS011;14326;50.794;6.060;2024-03-06T06:16:22;6.75;;;2.75;;
26718;SDS011;14326;50.794;6.060;2024-03-06T06:18:48;10.65;;;3.30;;
26718;SDS011;14326;50.794;6.060;2024-03-06T06:21:16;9.98;;;3.00;;
26718;SDS011;14326;50.794;6.060;2024-03-06T06:23:43;8.52;;;3.20;;
26718;SDS011;14326;50.794;6.060;2024-03-06T06:26:10;12.07;;;3.42;;
26718;SDS011;14326;50.794;6.060;2024-03-06T06:28:37;7.97;;;3.13;;
26718;SDS011;14326;50.794;6.060;2024-03-06T06:31:03;10.43;;;3.40;;
26718;SDS011;14326;50.794;6.060;2024-03-06T06:33:30;11.38;;;3.65;;
26718;SDS011;14326;50.794;6.060;2024-03-06T06:35:57;11.68;;;3.88;;
26718;SDS011;14326;50.794;6.060;2024-03-06T06:38:25;9.88;;;3.28;;
26718;SDS011;14326;50.794;6.060;2024-03-06T06:40:51;9.05;;;3.38;;
26718;SDS011;14326;50.794;6.060;2024-03-06T06:43:18;10.38;;;3.28;;
26718;SDS011;14326;50.794;6.060;2024-03-06T06:45:45;10.45;;;3.33;;
26718;SDS011;14326;50.794;6.060;2024-03-06T06:48:11;10.45;;;3.08;;
26718;SDS011;14326;50.794;6.060;2024-03-06T06:50:38;13.00;;;3.85;;
26718;SDS011;14326;50.794;6.060;2024-03-06T06:53:04;12.25;;;3.70;;
26718;SDS011;14326;50.794;6.060;2024-03-06T06:55:32;15.15;;;4.13;;
26718;SDS011;14326;50.794;6.060;2024-03-06T06:57:59;8.35;;;3.10;;
26718;SDS011;14326;50.794;6.060;2024-03-06T07:00:26;8.80;;;2.85;;
26718;SDS011;14326;50.794;6.060;2024-03-06T07:02:53;7.60;;;2.83;;
26718;SDS011;14326;50.794;6.060;2024-03-06T07:05:20;10.18;;;2.78;;
26718;SDS011;14326;50.794;6.060;2024-03-06T07:07:47;8.13;;;2.78;;
26718;SDS011;14326;50.794;6.060;2024-03-06T07:10:13;9.32;;;2.70;;
26718;SDS011;14326;50.794;6.060;2024-03-06T07:12:41;6.90;;;2.70;;
26718;SDS011;14326;50.794;6.060;2024-03-06T07:15:08;10.93;;;2.78;;
26718;SDS011;14326;50.794;6.060;2024-03-06T07:17:35;9.20;;;3.05;;
26718;SDS011;14326;50.794;6.060;2024-03-06T07:20:02;9.63;;;3.17;;
26718;SDS011;14326;50.794;6.060;2024-03-06T07:22:30;11.57;;;3.30;;
26718;SDS011;14326;50.794;6.060;2024-03-06T07:24:56;10.80;;;3.33;;
26718;SDS011;14326;50.794;6.060;2024-03-06T07:27:23;8.60;;;2.75;;
26718;SDS011;14326;50.794;6.060;2024-03-06T07:29:51;8.90;;;3.03;;
26718;SDS011;14326;50.794;6.060;2024-03-06T07:32:18;9.18;;;3.20;;
26718;SDS011;14326;50.794;6.060;2024-03-06T07:34:45;13.85;;;3.67;;
26718;SDS011;14326;50.794;6.060;2024-03-06T07:37:12;10.02;;;2.92;;
26718;SDS011;14326;50.794;6.060;2024-03-06T07:39:39;9.70;;;3.15;;
26718;SDS011;14326;50.794;6.060;2024-03-06T07:42:06;10.13;;;3.58;;
26718;SDS011;14326;50.794;6.060;2024-03-06T07:44:33;10.60;;;3.28;;
26718;SDS011;14326;50.794;6.060;2024-03-06T07:47:01;15.63;;;4.55;;
26718;SDS011;14326;50.794;6.060;2024-03-06T07:49:28;12.75;;;3.83;;
26718;SDS011;14326;50.794;6.060;2024-03-06T07:51:56;17.38;;;4.43;;
26718;SDS011;14326;50.794;6.060;2024-03-06T07:54:24;10.43;;;3.60;;
26718;SDS011;14326;50.794;6.060;2024-03-06T07:56:50;10.98;;;3.65;;
26718;SDS011;14326;50.794;6.060;2024-03-06T07:59:18;11.23;;;3.15;;
26718;SDS011;14326;50.794;6.060;2024-03-06T08:01:45;13.30;;;4.07;;
26718;SDS011;14326;50.794;6.060;2024-03-06T08:04:14;9.50;;;3.53;;
26718;SDS011;14326;50.794;6.060;2024-03-06T08:06:42;13.35;;;4.10;;
26718;SDS011;14326;50.794;6.060;2024-03-06T08:09:08;14.57;;;4.18;;
26718;SDS011;14326;50.794;6.060;2024-03-06T08:11:36;12.20;;;4.55;;
26718;SDS011;14326;50.794;6.060;2024-03-06T08:14:02;13.52;;;4.15;;
26718;SDS011;14326;50.794;6.060;2024-03-06T08:16:29;16.05;;;4.05;;
26718;SDS011;14326;50.794;6.060;2024-03-06T08:18:56;11.98;;;3.92;;
26718;SDS011;14326;50.794;6.060;2024-03-06T08:21:25;15.35;;;4.25;;
26718;SDS011;14326;50.794;6.060;2024-03-06T08:23:53;19.80;;;7.43;;
26718;SDS011;14326;50.794;6.060;2024-03-06T08:26:19;20.92;;;6.82;;
26718;SDS011;14326;50.794;6.060;2024-03-06T08:28:46;14.45;;;4.53;;
26718;SDS011;14326;50.794;6.060;2024-03-06T08:31:14;18.92;;;4.72;;
26718;SDS011;14326;50.794;6.060;2024-03-06T08:33:40;16.45;;;5.25;;
26718;SDS011;14326;50.794;6.060;2024-03-06T08:36:07;17.55;;;5.60;;
26718;SDS011;14326;50.794;6.060;2024-03-06T08:38:35;17.63;;;5.10;;
26718;SDS011;14326;50.794;6.060;2024-03-06T08:41:02;14.40;;;4.45;;
26718;SDS011;14326;50.794;6.060;2024-03-06T08:43:30;12.30;;;4.40;;
26718;SDS011;14326;50.794;6.060;2024-03-06T08:45:57;17.77;;;4.65;;
26718;SDS011;14326;50.794;6.060;2024-03-06T08:48:23;17.00;;;5.25;;
26718;SDS011;14326;50.794;6.060;2024-03-06T08:50:50;17.38;;;4.70;;
26718;SDS011;14326;50.794;6.060;2024-03-06T08:53:17;14.27;;;5.30;;
26718;SDS011;14326;50.794;6.060;2024-03-06T08:55:45;16.85;;;5.85;;
26718;SDS011;14326;50.794;6.060;2024-03-06T08:58:12;16.48;;;5.57;;
26718;SDS011;14326;50.794;6.060;2024-03-06T09:00:39;17.42;;;5.32;;
26718;SDS011;14326;50.794;6.060;2024-03-06T09:03:06;16.38;;;5.13;;
26718;SDS011;14326;50.794;6.060;2024-03-06T09:05:33;15.68;;;4.95;;
26718;SDS011;14326;50.794;6.060;2024-03-06T09:08:00;14.57;;;4.72;;
26718;SDS011;14326;50.794;6.060;2024-03-06T09:10:28;12.13;;;4.40;;
26718;SDS011;14326;50.794;6.060;2024-03-06T09:12:55;13.75;;;4.60;;
26718;SDS011;14326;50.794;6.060;2024-03-06T09:15:22;13.30;;;4.63;;
26718;SDS011;14326;50.794;6.060;2024-03-06T09:17:49;17.00;;;4.55;;
26718;SDS011;14326;50.794;6.060;2024-03-06T09:20:16;14.75;;;4.70;;
26718;SDS011;14326;50.794;6.060;2024-03-06T09:22:42;14.98;;;5.47;;
26718;SDS011;14326;50.794;6.060;2024-03-06T09:25:09;18.30;;;5.35;;
26718;SDS011;14326;50.794;6.060;2024-03-06T09:27:38;18.30;;;4.78;;
26718;SDS011;14326;50.794;6.060;2024-03-06T09:30:07;18.38;;;5.07;;
26718;SDS011;14326;50.794;6.060;2024-03-06T09:32:35;10.18;;;3.83;;
26718;SDS011;14326;50.794;6.060;2024-03-06T09:35:01;14.60;;;4.78;;
26718;SDS011;14326;50.794;6.060;2024-03-06T09:37:28;18.95;;;5.53;;
26718;SDS011;14326;50.794;6.060;2024-03-06T09:39:55;13.02;;;4.80;;
26718;SDS011;14326;50.794;6.060;2024-03-06T09:42:22;15.57;;;4.72;;
26718;SDS011;14326;50.794;6.060;2024-03-06T09:44:49;12.40;;;4.65;;
26718;SDS011;14326;50.794;6.060;2024-03-06T09:47:18;14.13;;;4.43;;
26718;SDS011;14326;50.794;6.060;2024-03-06T09:49:50;13.77;;;4.50;;
26718;SDS011;14326;50.794;6.060;2024-03-06T09:52:18;12.75;;;4.40;;
26718;SDS011;14326;50.794;6.060;2024-03-06T09:54:45;10.52;;;3.50;;
26718;SDS011;14326;50.794;6.060;2024-03-06T09:57:12;12.73;;;3.55;;
26718;SDS011;14326;50.794;6.060;2024-03-06T09:59:41;10.10;;;3.15;;
26718;SDS011;14326;50.794;6.060;2024-03-06T10:02:13;12.15;;;3.35;;
26718;SDS011;14326;50.794;6.060;2024-03-06T10:04:54;9.73;;;3.20;;
26718;SDS011;14326;50.794;6.060;2024-03-06T10:07:22;8.63;;;3.35;;
26718;SDS011;14326;50.794;6.060;2024-03-06T10:09:48;12.32;;;3.83;;
26718;SDS011;14326;50.794;6.060;2024-03-06T10:12:16;16.35;;;4.63;;
26718;SDS011;14326;50.794;6.060;2024-03-06T10:14:48;8.90;;;3.30;;
26718;SDS011;14326;50.794;6.060;2024-03-06T10:17:20;12.43;;;4.35;;
26718;SDS011;14326;50.794;6.060;2024-03-06T10:19:48;12.30;;;4.10;;
26718;SDS011;14326;50.794;6.060;2024-03-06T10:22:16;12.75;;;4.20;;
26718;SDS011;14326;50.794;6.060;2024-03-06T10:24:44;13.68;;;4.03;;
26718;SDS011;14326;50.794;6.060;2024-03-06T10:27:14;12.80;;;4.80;;
26718;SDS011;14326;50.794;6.060;2024-03-06T10:29:41;15.77;;;4.40;;
26718;SDS011;14326;50.794;6.060;2024-03-06T10:32:08;12.80;;;4.22;;
26718;SDS011;14326;50.794;6.060;2024-03-06T10:34:36;10.02;;;3.75;;
26718;SDS011;14326;50.794;6.060;2024-03-06T10:37:03;15.18;;;5.35;;
26718;SDS011;14326;50.794;6.060;2024-03-06T10:39:31;16.88;;;5.25;;
26718;SDS011;14326;50.794;6.060;2024-03-06T10:42:02;13.60;;;5.20;;
26718;SDS011;14326;50.794;6.060;2024-03-06T10:44:31;16.30;;;6.25;;
26718;SDS011;14326;50.794;6.060;2024-03-06T10:47:01;15.20;;;5.22;;
26718;SDS011;14326;50.794;6.060;2024-03-06T10:49:29;12.40;;;4.55;;
26718;SDS011;14326;50.794;6.060;2024-03-06T10:51:58;13.30;;;4.22;;
26718;SDS011;14326;50.794;6.060;2024-03-06T10:54:26;13.93;;;4.65;;
26718;SDS011;14326;50.794;6.060;2024-03-06T10:56:54;12.60;;;4.65;;
26718;SDS011;14326;50.794;6.060;2024-03-06T10:59:21;11.90;;;4.15;;
26718;SDS011;14326;50.794;6.060;2024-03-06T11:01:52;12.60;;;4.60;;
26718;SDS011;14326;50.794;6.060;2024-03-06T11:04:20;15.95;;;4.93;;
26718;SDS011;14326;50.794;6.060;2024-03-06T11:06:48;11.15;;;3.75;;
26718;SDS011;14326;50.794;6.060;2024-03-06T11:09:16;13.10;;;4.63;;
26718;SDS011;14326;50.794;6.060;2024-03-06T11:11:50;13.88;;;4.15;;
26718;SDS011;14326;50.794;6.060;2024-03-06T11:14:18;13.57;;;4.63;;
26718;SDS011;14326;50.794;6.060;2024-03-06T11:16:56;14.55;;;5.00;;
26718;SDS011;14326;50.794;6.060;2024-03-06T11:19:25;14.98;;;4.63;;
26718;SDS011;14326;50.794;6.060;2024-03-06T11:21:53;12.00;;;4.30;;
26718;SDS011;14326;50.794;6.060;2024-03-06T11:24:22;11.88;;;4.25;;
26718;SDS011;14326;50.794;6.060;2024-03-06T11:26:50;14.52;;;4.18;;
26718;SDS011;14326;50.794;6.060;2024-03-06T11:29:27;14.43;;;4.13;;
26718;SDS011;14326;50.794;6.060;2024-03-06T11:31:59;11.40;;;3.50;;
26718;SDS011;14326;50.794;6.060;2024-03-06T11:34:26;7.93;;;3.58;;
26718;SDS011;14326;50.794;6.060;2024-03-06T11:36:53;13.07;;;4.32;;
26718;SDS011;14326;50.794;6.060;2024-03-06T11:39:23;12.30;;;3.60;;
26718;SDS011;14326;50.794;6.060;2024-03-06T11:41:50;12.30;;;3.70;;
26718;SDS011;14326;50.794;6.060;2024-03-06T11:44:17;12.82;;;4.20;;
26718;SDS011;14326;50.794;6.060;2024-03-06T11:46:46;13.00;;;3.67;;
26718;SDS011;14326;50.794;6.060;2024-03-06T11:49:14;12.15;;;4.00;;
26718;SDS011;14326;50.794;6.060;2024-03-06T11:51:42;10.85;;;3.38;;
26718;SDS011;14326;50.794;6.060;2024-03-06T11:54:10;11.18;;;4.05;;
26718;SDS011;14326;50.794;6.060;2024-03-06T11:56:39;13.13;;;4.07;;
26718;SDS011;14326;50.794;6.060;2024-03-06T11:59:06;10.82;;;3.40;;
26718;SDS011;14326;50.794;6.060;2024-03-06T12:01:34;11.82;;;3.83;;
26718;SDS011;14326;50.794;6.060;2024-03-06T12:04:01;12.38;;;3.70;;
26718;SDS011;14326;50.794;6.060;2024-03-06T12:06:29;12.05;;;4.00;;
26718;SDS011;14326;50.794;6.060;2024-03-06T12:08:55;13.75;;;4.18;;
26718;SDS011;14326;50.794;6.060;2024-03-06T12:11:22;13.35;;;4.25;;
26718;SDS011;14326;50.794;6.060;2024-03-06T12:13:52;11.93;;;3.92;;
26718;SDS011;14326;50.794;6.060;2024-03-06T12:16:18;12.27;;;3.83;;
26718;SDS011;14326;50.794;6.060;2024-03-06T12:18:45;11.13;;;3.75;;
26718;SDS011;14326;50.794;6.060;2024-03-06T12:21:12;10.52;;;3.95;;
26718;SDS011;14326;50.794;6.060;2024-03-06T12:23:38;11.73;;;3.75;;
26718;SDS011;14326;50.794;6.060;2024-03-06T12:26:05;11.95;;;4.03;;
26718;SDS011;14326;50.794;6.060;2024-03-06T12:28:35;8.13;;;3.17;;
26718;SDS011;14326;50.794;6.060;2024-03-06T12:31:03;12.15;;;3.40;;
26718;SDS011;14326;50.794;6.060;2024-03-06T12:33:30;9.05;;;3.45;;
26718;SDS011;14326;50.794;6.060;2024-03-06T12:36:00;6.85;;;2.75;;
26718;SDS011;14326;50.794;6.060;2024-03-06T12:38:28;19.92;;;3.75;;
26718;SDS011;14326;50.794;6.060;2024-03-06T12:40:55;16.35;;;3.45;;
26718;SDS011;14326;50.794;6.060;2024-03-06T12:43:21;11.15;;;2.72;;
26718;SDS011;14326;50.794;6.060;2024-03-06T12:45:49;7.40;;;2.75;;
26718;SDS011;14326;50.794;6.060;2024-03-06T12:48:17;10.25;;;2.83;;
26718;SDS011;14326;50.794;6.060;2024-03-06T12:50:43;8.10;;;3.03;;
26718;SDS011;14326;50.794;6.060;2024-03-06T12:53:15;9.90;;;3.40;;
26718;SDS011;14326;50.794;6.060;2024-03-06T12:55:42;7.38;;;3.10;;
26718;SDS011;14326;50.794;6.060;2024-03-06T12:58:10;8.05;;;3.20;;
26718;SDS011;14326;50.794;6.060;2024-03-06T13:00:37;11.05;;;3.08;;
26718;SDS011;14326;50.794;6.060;2024-03-06T13:03:05;9.07;;;2.83;;
26718;SDS011;14326;50.794;6.060;2024-03-06T13:05:33;11.32;;;3.70;;
26718;SDS011;14326;50.794;6.060;2024-03-06T13:08:00;8.57;;;2.60;;
26718;SDS011;14326;50.794;6.060;2024-03-06T13:10:26;9.23;;;2.70;;
26718;SDS011;14326;50.794;6.060;2024-03-06T13:12:53;9.35;;;2.97;;
26718;SDS011;14326;50.794;6.060;2024-03-06T13:15:20;8.88;;;3.30;;
26718;SDS011;14326;50.794;6.060;2024-03-06T13:17:47;7.57;;;2.60;;
26718;SDS011;14326;50.794;6.060;2024-03-06T13:20:13;8.50;;;2.63;;
26718;SDS011;14326;50.794;6.060;2024-03-06T13:22:44;9.85;;;2.03;;
26718;SDS011;14326;50.794;6.060;2024-03-06T13:25:11;6.32;;;2.40;;
26718;SDS011;14326;50.794;6.060;2024-03-06T13:27:38;7.30;;;2.83;;
26718;SDS011;14326;50.794;6.060;2024-03-06T13:30:05;15.38;;;4.03;;
26718;SDS011;14326;50.794;6.060;2024-03-06T13:32:33;11.48;;;3.40;;
26718;SDS011;14326;50.794;6.060;2024-03-06T13:34:59;11.02;;;3.40;;
26718;SDS011;14326;50.794;6.060;2024-03-06T13:37:26;9.95;;;3.50;;
26718;SDS011;14326;50.794;6.060;2024-03-06T13:39:54;12.70;;;4.28;;
26718;SDS011;14326;50.794;6.060;2024-03-06T13:42:25;12.60;;;3.72;;
26718;SDS011;14326;50.794;6.060;2024-03-06T13:44:52;18.10;;;3.92;;
26718;SDS011;14326;50.794;6.060;2024-03-06T13:47:19;13.45;;;4.10;;
26718;SDS011;14326;50.794;6.060;2024-03-06T13:49:45;10.57;;;3.78;;
26718;SDS011;14326;50.794;6.060;2024-03-06T13:52:12;13.10;;;4.13;;
26718;SDS011;14326;50.794;6.060;2024-03-06T13:54:41;11.73;;;3.80;;
26718;SDS011;14326;50.794;6.060;2024-03-06T13:57:10;12.38;;;3.67;;
26718;SDS011;14326;50.794;6.060;2024-03-06T13:59:37;11.35;;;3.78;;
26718;SDS011;14326;50.794;6.060;2024-03-06T14:02:05;10.65;;;4.00;;
26718;SDS011;14326;50.794;6.060;2024-03-06T14:04:32;11.95;;;4.05;;
26718;SDS011;14326;50.794;6.060;2024-03-06T14:06:59;10.77;;;3.90;;
26718;SDS011;14326;50.794;6.060;2024-03-06T14:09:26;15.20;;;4.32;;
26718;SDS011;14326;50.794;6.060;2024-03-06T14:11:53;17.98;;;4.93;;
26718;SDS011;14326;50.794;6.060;2024-03-06T14:14:21;11.75;;;4.30;;
26718;SDS011;14326;50.794;6.060;2024-03-06T14:16:48;11.70;;;4.10;;
26718;SDS011;14326;50.794;6.060;2024-03-06T14:19:14;17.00;;;4.20;;
26718;SDS011;14326;50.794;6.060;2024-03-06T14:21:41;15.80;;;4.07;;
26718;SDS011;14326;50.794;6.060;2024-03-06T14:24:08;12.52;;;4.15;;
26718;SDS011;14326;50.794;6.060;2024-03-06T14:26:35;13.23;;;4.70;;
26718;SDS011;14326;50.794;6.060;2024-03-06T14:29:02;14.45;;;4.07;;
26718;SDS011;14326;50.794;6.060;2024-03-06T14:31:32;11.50;;;3.90;;
26718;SDS011;14326;50.794;6.060;2024-03-06T14:33:59;10.98;;;4.22;;
26718;SDS011;14326;50.794;6.060;2024-03-06T14:36:26;11.20;;;4.07;;
26718;SDS011;14326;50.794;6.060;2024-03-06T14:38:52;12.85;;;4.30;;
26718;SDS011;14326;50.794;6.060;2024-03-06T14:41:19;11.10;;;4.30;;